Time;durP1;ratioP1;P1;durP2;ratioP2;P2;SDS_P1;SDS_P2;PMS_P1;PMS_P2;Temp;Humidity;BMP_temperature;BMP_pressure;BME280_temperature;BME280_humidity;BME280_pressure;Samples;Min_cycle;Max_cycle;Signal;HPM_P1;HPM_P2
2022/04/11 00:01:18;;;;;;;6.13;4.05;;;4.80;99.90;;;;;;5103472;28;20107;-50
2022/04/11 00:04:03;;;;;;;7.50;4.10;;;4.80;99.90;;;;;;5113423;28;20031;-47
2022/04/11 00:06:47;;;;;;;6.72;4.03;;;4.90;99.90;;;;;;5111142;28;20091;-46
2022/04/11 00:09:31;;;;;;;7.00;3.80;;;4.90;99.90;;;;;;5093455;28;20065;-44
2022/04/11 00:12:15;;;;;;;5.85;3.83;;;4.90;99.90;;;;;;5111453;27;20103;-45
2022/04/11 00:14:59;;;;;;;4.10;3.55;;;4.80;99.90;;;;;;5094968;27;20030;-44
2022/04/11 00:17:44;;;;;;;6.07;4.03;;;4.80;99.90;;;;;;5094662;28;20093;-47
2022/04/11 00:20:29;;;;;;;5.78;3.50;;;4.80;99.90;;;;;;5109842;27;20441;-44
2022/04/11 00:23:14;;;;;;;8.05;3.50;;;4.80;99.90;;;;;;5121300;27;20038;-48
2022/04/11 00:25:58;;;;;;;6.70;4.43;;;4.80;99.90;;;;;;5106675;27;20051;-44
2022/04/11 00:28:42;;;;;;;4.47;3.58;;;4.70;99.90;;;;;;5119716;27;20108;-47
2022/04/11 00:31:26;;;;;;;5.00;3.80;;;4.70;99.90;;;;;;5108472;27;20050;-45
2022/04/11 00:34:11;;;;;;;6.45;3.50;;;4.70;99.90;;;;;;5123653;27;20104;-45
2022/04/11 00:36:55;;;;;;;5.57;3.40;;;4.70;99.90;;;;;;5122300;27;20085;-48
2022/04/11 00:39:39;;;;;;;6.47;3.53;;;4.60;99.90;;;;;;5128776;27;20037;-47
2022/04/11 00:42:27;;;;;;;6.32;3.47;;;4.60;99.90;;;;;;5121589;27;20096;-46
2022/04/11 00:45:11;;;;;;;4.68;3.25;;;4.60;99.90;;;;;;5109362;27;20406;-45
2022/04/11 00:47:55;;;;;;;6.57;3.97;;;4.50;99.90;;;;;;5122113;27;20813;-45
2022/04/11 00:50:39;;;;;;;6.22;3.88;;;4.50;99.90;;;;;;5114260;28;20053;-46
2022/04/11 00:53:24;;;;;;;7.13;3.63;;;4.50;99.90;;;;;;5111677;27;20033;-44
2022/04/11 00:56:11;;;;;;;7.82;4.05;;;4.50;99.90;;;;;;5133472;27;20034;-49
2022/04/11 00:59:00;;;;;;;4.78;3.33;;;4.50;99.90;;;;;;5111938;27;20070;-46
2022/04/11 01:01:44;;;;;;;6.05;3.35;;;4.50;99.90;;;;;;5107740;28;20122;-49
2022/04/11 01:04:28;;;;;;;6.67;3.60;;;4.60;99.90;;;;;;5113339;28;20038;-46
2022/04/11 01:07:12;;;;;;;6.55;3.10;;;4.50;99.90;;;;;;5104204;28;20159;-48
2022/04/11 01:09:59;;;;;;;5.57;3.58;;;4.50;99.90;;;;;;5115420;27;20045;-49
2022/04/11 01:12:43;;;;;;;5.07;3.47;;;4.60;99.90;;;;;;5135666;27;20091;-45
2022/04/11 01:15:27;;;;;;;5.90;3.35;;;4.60;99.90;;;;;;5134354;27;20106;-51
2022/04/11 01:18:12;;;;;;;5.20;3.30;;;4.60;99.90;;;;;;5118129;27;20098;-46
2022/04/11 01:20:56;;;;;;;7.15;3.83;;;4.60;99.90;;;;;;5129703;27;20061;-46
2022/04/11 01:23:40;;;;;;;6.68;3.47;;;4.60;99.90;;;;;;5117193;28;20039;-47
2022/04/11 01:26:26;;;;;;;5.85;3.63;;;4.50;99.90;;;;;;5106224;28;20032;-45
2022/04/11 01:29:12;;;;;;;4.95;3.42;;;4.50;99.90;;;;;;5093569;28;20043;-44
2022/04/11 01:31:56;;;;;;;6.75;3.58;;;4.50;99.90;;;;;;5094407;28;20034;-44
2022/04/11 01:34:40;;;;;;;9.35;4.00;;;4.50;99.90;;;;;;5096199;28;20046;-45
2022/04/11 01:37:24;;;;;;;5.60;3.58;;;4.40;99.90;;;;;;5098471;28;20043;-44
2022/04/11 01:40:09;;;;;;;6.13;4.53;;;4.40;99.90;;;;;;5099367;28;20116;-44
2022/04/11 01:42:54;;;;;;;6.30;3.45;;;4.40;99.90;;;;;;5126000;27;20051;-46
2022/04/11 01:45:38;;;;;;;4.47;3.40;;;4.40;99.90;;;;;;5111813;28;20046;-50
2022/04/11 01:48:22;;;;;;;4.90;3.10;;;4.40;99.90;;;;;;5114146;28;20031;-49
2022/04/11 01:51:06;;;;;;;5.63;3.60;;;4.40;99.90;;;;;;5112630;28;20462;-48
2022/04/11 01:53:50;;;;;;;5.20;3.42;;;4.40;99.90;;;;;;5113527;28;20080;-46
2022/04/11 01:56:34;;;;;;;3.97;3.22;;;4.40;99.90;;;;;;5104514;28;20552;-49
2022/04/11 01:59:18;;;;;;;5.57;3.15;;;4.40;99.90;;;;;;5113777;28;20112;-45
2022/04/11 02:02:03;;;;;;;7.65;3.50;;;4.40;99.90;;;;;;5093809;28;20039;-48
2022/04/11 02:04:47;;;;;;;5.72;3.38;;;4.30;99.90;;;;;;5093273;28;20104;-45
2022/04/11 02:07:32;;;;;;;5.57;3.53;;;4.30;99.90;;;;;;5097750;28;20047;-46
2022/04/11 02:10:16;;;;;;;6.50;3.70;;;4.30;99.90;;;;;;5097479;28;20027;-44
2022/04/11 02:13:01;;;;;;;6.50;3.53;;;4.30;99.90;;;;;;5113929;28;20042;-46
2022/04/11 02:15:45;;;;;;;6.95;3.50;;;4.20;99.90;;;;;;5108356;28;20067;-43
2022/04/11 02:18:29;;;;;;;6.47;3.35;;;4.20;99.90;;;;;;5093905;28;20051;-44
2022/04/11 02:21:13;;;;;;;4.85;3.55;;;4.20;99.90;;;;;;5104850;28;20038;-47
2022/04/11 02:23:57;;;;;;;5.60;3.55;;;4.20;99.90;;;;;;5114422;28;20548;-47
2022/04/11 02:26:41;;;;;;;4.45;3.13;;;4.20;99.90;;;;;;5099736;28;20098;-46
2022/04/11 02:29:25;;;;;;;5.50;3.35;;;4.10;99.90;;;;;;5094100;28;20410;-47
2022/04/11 02:32:09;;;;;;;5.40;3.78;;;4.10;99.90;;;;;;5111437;28;20039;-45
2022/04/11 02:34:53;;;;;;;4.10;3.35;;;4.10;99.90;;;;;;5113072;28;20039;-44
2022/04/11 02:37:38;;;;;;;6.63;4.43;;;4.00;99.90;;;;;;5094049;28;20581;-45
2022/04/11 02:40:22;;;;;;;6.18;3.38;;;4.00;99.90;;;;;;5099293;28;20526;-48
2022/04/11 02:43:07;;;;;;;7.30;3.80;;;3.90;99.90;;;;;;5112804;28;20482;-48
2022/04/11 02:45:51;;;;;;;7.95;3.60;;;3.90;99.90;;;;;;5113991;28;20506;-48
2022/04/11 02:48:36;;;;;;;5.00;3.45;;;3.90;99.90;;;;;;5114737;28;20088;-49
2022/04/11 02:51:20;;;;;;;5.75;3.45;;;3.90;99.90;;;;;;5114164;28;20070;-43
2022/04/11 02:54:07;;;;;;;5.80;3.60;;;3.80;99.90;;;;;;5115288;28;20120;-43
2022/04/11 02:56:51;;;;;;;4.95;3.35;;;3.80;99.90;;;;;;5094883;28;20093;-44
2022/04/11 02:59:35;;;;;;;6.43;3.28;;;3.70;99.90;;;;;;5094033;28;20057;-51
2022/04/11 03:02:20;;;;;;;5.20;3.47;;;3.80;99.90;;;;;;5094294;28;20043;-47
2022/04/11 03:05:04;;;;;;;7.68;3.50;;;3.80;99.90;;;;;;5097546;28;20062;-48
2022/04/11 03:07:49;;;;;;;7.55;4.35;;;3.80;99.90;;;;;;5114197;28;20415;-44
2022/04/11 03:10:33;;;;;;;5.78;3.28;;;3.80;99.90;;;;;;5106416;28;20024;-43
2022/04/11 03:13:17;;;;;;;5.63;3.53;;;3.80;99.90;;;;;;5077360;28;20510;-44
2022/04/11 03:16:01;;;;;;;5.55;3.47;;;3.80;99.90;;;;;;5104432;28;20050;-44
2022/04/11 03:18:45;;;;;;;7.43;3.10;;;3.80;99.90;;;;;;5098073;28;20410;-43
2022/04/11 03:21:29;;;;;;;5.78;3.65;;;3.70;99.90;;;;;;5096922;28;20445;-47
2022/04/11 03:24:13;;;;;;;7.97;3.63;;;3.70;99.90;;;;;;5076388;28;20157;-44
2022/04/11 03:26:58;;;;;;;5.57;3.25;;;3.60;99.90;;;;;;5092458;28;20031;-48
2022/04/11 03:29:42;;;;;;;7.70;3.50;;;3.60;99.90;;;;;;5093148;28;20055;-46
2022/04/11 03:32:26;;;;;;;7.35;3.70;;;3.60;99.90;;;;;;5077398;28;20514;-53
2022/04/11 03:35:10;;;;;;;4.90;3.10;;;3.60;99.90;;;;;;5098461;28;20046;-49
2022/04/11 03:37:54;;;;;;;4.32;3.40;;;3.60;99.90;;;;;;5113966;28;20089;-44
2022/04/11 03:40:38;;;;;;;5.63;3.55;;;3.70;99.90;;;;;;5103800;28;20396;-45
2022/04/11 03:43:22;;;;;;;6.93;4.63;;;3.60;99.90;;;;;;5124457;28;20403;-43
2022/04/11 03:46:06;;;;;;;5.95;4.22;;;3.60;99.90;;;;;;5112562;28;20532;-48
2022/04/11 03:48:50;;;;;;;10.05;4.43;;;3.60;99.90;;;;;;5115842;28;20093;-45
2022/04/11 03:51:34;;;;;;;7.65;5.07;;;3.50;99.90;;;;;;5102911;28;20043;-46
2022/04/11 03:54:18;;;;;;;7.78;4.05;;;3.60;99.90;;;;;;5096908;28;20031;-44
2022/04/11 03:57:03;;;;;;;8.30;4.13;;;3.60;99.90;;;;;;5095896;28;20058;-44
2022/04/11 03:59:47;;;;;;;5.88;3.38;;;3.60;99.90;;;;;;5095702;28;20097;-49
2022/04/11 04:02:31;;;;;;;5.20;4.22;;;3.60;99.90;;;;;;5116325;28;20073;-46
2022/04/11 04:05:15;;;;;;;6.43;3.80;;;3.60;99.90;;;;;;5110902;28;20210;-48
2022/04/11 04:08:00;;;;;;;24.90;13.45;;;3.70;99.90;;;;;;5095516;28;20038;-45
2022/04/11 04:10:44;;;;;;;14.02;7.47;;;3.70;99.90;;;;;;5103758;28;20042;-45
2022/04/11 04:13:29;;;;;;;9.38;4.43;;;3.70;99.90;;;;;;5115635;28;20042;-45
2022/04/11 04:16:13;;;;;;;8.40;4.15;;;3.70;99.90;;;;;;5102190;28;20035;-47
2022/04/11 04:18:58;;;;;;;13.67;7.80;;;3.70;99.90;;;;;;5095341;28;20548;-46
2022/04/11 04:21:42;;;;;;;12.38;6.90;;;3.60;99.90;;;;;;5096454;28;20081;-51
2022/04/11 04:24:26;;;;;;;7.30;4.30;;;3.50;99.90;;;;;;5094946;28;20461;-49
2022/04/11 04:27:10;;;;;;;6.93;4.32;;;3.60;99.90;;;;;;5095071;28;20039;-50
2022/04/11 04:29:54;;;;;;;17.65;9.90;;;3.60;99.90;;;;;;5097405;28;20058;-52
2022/04/11 04:32:39;;;;;;;15.30;8.32;;;3.50;99.90;;;;;;5116104;28;20131;-47
2022/04/11 04:35:23;;;;;;;10.10;4.60;;;3.60;99.90;;;;;;5107871;28;20051;-45
2022/04/11 04:38:08;;;;;;;7.85;4.45;;;3.60;99.90;;;;;;5094812;28;20526;-45
2022/04/11 04:40:52;;;;;;;9.18;4.68;;;3.60;99.90;;;;;;5105145;28;20042;-48
2022/04/11 04:43:36;;;;;;;6.65;4.60;;;3.50;99.90;;;;;;5103402;28;20093;-45
2022/04/11 04:46:20;;;;;;;11.60;4.55;;;3.50;99.90;;;;;;5109647;28;20035;-47
2022/04/11 04:49:04;;;;;;;8.55;4.40;;;3.50;99.90;;;;;;5114825;28;20058;-45
2022/04/11 04:51:48;;;;;;;12.48;4.93;;;3.50;99.90;;;;;;5114976;28;20047;-46
2022/04/11 04:54:33;;;;;;;8.75;4.75;;;3.50;99.90;;;;;;5116666;28;20054;-51
2022/04/11 04:57:16;;;;;;;8.80;5.40;;;3.50;99.90;;;;;;5097642;28;20039;-45
2022/04/11 05:00:02;;;;;;;5.25;4.07;;;3.50;99.90;;;;;;5098374;28;20077;-44
2022/04/11 05:02:46;;;;;;;10.23;4.82;;;3.60;99.90;;;;;;5093984;28;20031;-46
2022/04/11 05:05:30;;;;;;;6.65;4.75;;;3.60;99.90;;;;;;5099483;28;20074;-47
2022/04/11 05:08:15;;;;;;;7.55;4.43;;;3.70;99.90;;;;;;5095155;28;20043;-44
2022/04/11 05:11:00;;;;;;;10.27;4.53;;;3.70;99.90;;;;;;5114185;28;20078;-48
2022/04/11 05:13:44;;;;;;;7.28;4.72;;;3.70;99.90;;;;;;5114307;28;20082;-49
2022/04/11 05:16:28;;;;;;;8.35;5.20;;;3.80;99.90;;;;;;5094386;28;20047;-47
2022/04/11 05:19:12;;;;;;;10.45;5.20;;;3.80;99.90;;;;;;5094448;28;20047;-46
2022/04/11 05:21:56;;;;;;;19.15;5.72;;;3.80;99.90;;;;;;5094202;28;20491;-51
2022/04/11 05:24:41;;;;;;;10.10;5.25;;;3.90;99.90;;;;;;5100780;28;20086;-47
2022/04/11 05:27:25;;;;;;;15.05;5.70;;;3.90;99.90;;;;;;5114813;28;20387;-46
2022/04/11 05:30:09;;;;;;;13.40;6.28;;;4.00;99.90;;;;;;5113401;28;20414;-45
2022/04/11 05:32:54;;;;;;;10.25;4.90;;;4.00;99.90;;;;;;5114348;28;20107;-46
2022/04/11 05:35:38;;;;;;;6.95;5.20;;;4.10;99.90;;;;;;5098625;28;20569;-47
2022/04/11 05:38:22;;;;;;;10.95;5.57;;;4.20;99.90;;;;;;5095577;28;20058;-48
2022/04/11 05:41:07;;;;;;;11.85;6.97;;;4.20;99.90;;;;;;5114757;27;20525;-44
2022/04/11 05:43:51;;;;;;;20.27;10.40;;;4.30;99.90;;;;;;5123481;27;20034;-47
2022/04/11 05:46:35;;;;;;;13.60;7.78;;;4.30;99.90;;;;;;5130285;27;20038;-48
2022/04/11 05:49:20;;;;;;;17.95;7.63;;;4.30;99.90;;;;;;5127359;27;20403;-50
2022/04/11 05:52:05;;;;;;;12.70;6.78;;;4.50;99.90;;;;;;5114747;28;20043;-46
2022/04/11 05:54:49;;;;;;;14.73;7.45;;;4.60;99.90;;;;;;5103180;28;20043;-47
2022/04/11 05:57:33;;;;;;;18.87;8.03;;;4.40;99.90;;;;;;5093744;28;20119;-44
2022/04/11 06:00:17;;;;;;;15.60;7.03;;;4.50;99.90;;;;;;5098438;28;20421;-45
2022/04/11 06:03:01;;;;;;;13.03;7.77;;;4.60;99.90;;;;;;5093669;28;20115;-48
2022/04/11 06:05:45;;;;;;;11.23;7.00;;;4.70;99.90;;;;;;5097483;27;20038;-51
2022/04/11 06:08:29;;;;;;;16.15;7.40;;;4.80;99.90;;;;;;5134519;27;20358;-48
2022/04/11 06:11:14;;;;;;;10.75;6.70;;;4.90;99.90;;;;;;5134982;27;20115;-46
2022/04/11 06:13:58;;;;;;;11.52;7.55;;;4.90;99.90;;;;;;5132431;27;20038;-49
2022/04/11 06:16:42;;;;;;;9.15;6.70;;;5.00;99.90;;;;;;5113882;28;20062;-48
2022/04/11 06:19:26;;;;;;;7.40;6.10;;;5.00;99.90;;;;;;5093310;28;20038;-50
2022/04/11 06:22:11;;;;;;;10.63;6.28;;;5.10;99.90;;;;;;5113302;28;20391;-48
2022/04/11 06:25:00;;;;;;;11.65;6.72;;;5.20;99.90;;;;;;5113382;28;20031;-50
2022/04/11 06:27:44;;;;;;;10.55;7.13;;;5.40;99.90;;;;;;5085327;28;20039;-45
2022/04/11 06:30:28;;;;;;;10.88;7.25;;;5.30;99.20;;;;;;5086920;28;20100;-45
2022/04/11 06:33:12;;;;;;;11.18;7.35;;;5.20;99.30;;;;;;5093107;28;20514;-47
2022/04/11 06:35:56;;;;;;;9.50;7.03;;;5.20;99.50;;;;;;5112577;28;20089;-48
2022/04/11 06:38:40;;;;;;;12.43;6.82;;;5.20;99.00;;;;;;5097420;28;20085;-46
2022/04/11 06:41:24;;;;;;;9.27;6.53;;;5.30;98.50;;;;;;5116265;27;20042;-46
2022/04/11 06:44:08;;;;;;;8.95;6.30;;;5.10;99.00;;;;;;5117855;27;20069;-45
2022/04/11 06:46:52;;;;;;;11.18;6.75;;;5.30;98.80;;;;;;5111086;28;20081;-51
2022/04/11 06:49:37;;;;;;;12.00;6.88;;;5.40;98.70;;;;;;5105587;28;20054;-49
2022/04/11 06:52:21;;;;;;;8.82;6.70;;;5.50;98.60;;;;;;5093123;28;20098;-50
2022/04/11 06:55:06;;;;;;;16.23;7.30;;;5.60;98.60;;;;;;5099747;28;20071;-48
2022/04/11 06:57:50;;;;;;;12.20;7.60;;;5.60;98.60;;;;;;5093208;28;20057;-49
2022/04/11 07:00:34;;;;;;;10.38;7.72;;;5.60;98.50;;;;;;5099602;28;20059;-53
2022/04/11 07:03:18;;;;;;;12.15;7.05;;;5.70;98.60;;;;;;5112969;28;20034;-49
2022/04/11 07:06:03;;;;;;;10.93;6.90;;;5.90;98.00;;;;;;5112191;28;20111;-48
2022/04/11 07:08:46;;;;;;;12.20;6.53;;;5.90;97.60;;;;;;5113439;28;20119;-49
2022/04/11 07:11:31;;;;;;;9.75;7.55;;;6.00;97.50;;;;;;5099275;28;20066;-47
2022/04/11 07:14:15;;;;;;;14.77;6.88;;;5.80;97.50;;;;;;5104401;28;20055;-46
2022/04/11 07:16:59;;;;;;;11.47;6.50;;;5.90;97.50;;;;;;5097749;28;20055;-49
2022/04/11 07:19:43;;;;;;;10.43;6.32;;;6.00;97.20;;;;;;5092258;28;20081;-50
2022/04/11 07:22:28;;;;;;;10.68;5.90;;;6.10;97.30;;;;;;5093416;28;20071;-45
2022/04/11 07:25:12;;;;;;;11.02;6.30;;;6.10;97.10;;;;;;5097241;28;20502;-45
2022/04/11 07:27:56;;;;;;;9.07;5.15;;;6.30;97.10;;;;;;5112746;28;20035;-45
2022/04/11 07:30:40;;;;;;;10.45;6.07;;;6.40;96.90;;;;;;5099621;28;20114;-46
2022/04/11 07:33:24;;;;;;;13.55;6.28;;;6.60;96.70;;;;;;5101407;28;20049;-44
2022/04/11 07:36:09;;;;;;;6.73;5.03;;;6.70;96.60;;;;;;5126914;27;20397;-50
2022/04/11 07:38:53;;;;;;;11.18;6.22;;;6.70;96.20;;;;;;5118460;27;20038;-54
2022/04/11 07:41:37;;;;;;;8.38;6.03;;;6.80;96.30;;;;;;5117422;27;20050;-54
2022/04/11 07:44:22;;;;;;;8.43;5.82;;;6.80;96.60;;;;;;5125363;27;20111;-49
2022/04/11 07:47:06;;;;;;;15.30;9.55;;;6.90;96.60;;;;;;5116356;28;20402;-48
2022/04/11 07:49:51;;;;;;;9.77;5.53;;;7.00;96.50;;;;;;5100450;28;20138;-47
2022/04/11 07:52:43;;;;;;;8.02;4.53;;;7.10;96.10;;;;;;5119920;27;20123;-46
2022/04/11 07:55:27;;;;;;;9.50;5.07;;;7.30;95.70;;;;;;5137496;27;20035;-49
2022/04/11 07:58:12;;;;;;;7.38;5.35;;;7.30;95.80;;;;;;5125933;27;20039;-46
2022/04/11 08:00:56;;;;;;;7.30;4.53;;;7.40;95.40;;;;;;5117303;28;20045;-53
2022/04/11 08:03:40;;;;;;;7.03;4.63;;;7.40;95.60;;;;;;5086807;28;20044;-53
2022/04/11 08:06:24;;;;;;;8.18;4.50;;;7.60;95.50;;;;;;5105234;28;20031;-50
2022/04/11 08:09:08;;;;;;;6.25;4.32;;;7.80;95.00;;;;;;5104988;27;20075;-49
2022/04/11 08:11:52;;;;;;;6.70;4.30;;;7.70;94.80;;;;;;5137548;27;20467;-45
2022/04/11 08:14:36;;;;;;;5.72;4.55;;;7.70;94.60;;;;;;5125310;27;20042;-45
2022/04/11 08:17:20;;;;;;;9.30;5.13;;;7.80;95.00;;;;;;5114249;28;20085;-44
2022/04/11 08:20:05;;;;;;;8.18;4.43;;;7.90;94.80;;;;;;5107045;27;20085;-44
2022/04/11 08:22:49;;;;;;;7.20;4.30;;;8.00;94.40;;;;;;5135416;27;20029;-47
2022/04/11 08:25:34;;;;;;;7.70;4.90;;;8.30;93.80;;;;;;5114469;28;20383;-46
2022/04/11 08:28:20;;;;;;;7.70;4.10;;;8.30;93.90;;;;;;5084880;27;20277;-50
2022/04/11 08:31:04;;;;;;;5.28;4.00;;;8.50;94.20;;;;;;5136422;27;20109;-49
2022/04/11 08:33:48;;;;;;;14.57;5.20;;;8.40;93.40;;;;;;5123608;27;20080;-52
2022/04/11 08:36:32;;;;;;;9.18;4.32;;;8.60;93.20;;;;;;5116010;28;20062;-47
2022/04/11 08:39:16;;;;;;;6.90;3.20;;;8.70;93.00;;;;;;5116255;28;20035;-46
2022/04/11 08:42:01;;;;;;;5.68;3.38;;;8.90;91.80;;;;;;5124021;27;20030;-51
2022/04/11 08:44:46;;;;;;;5.05;3.80;;;9.00;91.70;;;;;;5115638;27;20028;-54
2022/04/11 08:47:31;;;;;;;;;;;9.20;91.20;;;;;;5126497;27;20058;-49
2022/04/11 08:50:15;;;;;;;8.45;3.70;;;9.00;90.90;;;;;;5118879;27;19981;-46
2022/04/11 08:52:59;;;;;;;13.40;4.00;;;9.00;90.40;;;;;;5112675;28;20038;-47
2022/04/11 08:55:44;;;;;;;5.80;3.17;;;9.00;90.50;;;;;;5112884;28;20031;-45
2022/04/11 08:58:28;;;;;;;8.38;3.88;;;9.10;90.30;;;;;;5113970;28;20568;-46
2022/04/11 09:01:12;;;;;;;6.73;3.20;;;9.10;89.70;;;;;;5105232;28;20519;-45
2022/04/11 09:03:56;;;;;;;7.00;3.55;;;9.20;89.20;;;;;;5099704;28;20097;-50
2022/04/11 09:06:40;;;;;;;6.10;3.45;;;9.40;88.90;;;;;;5113877;28;20034;-52
2022/04/11 09:09:38;;;;;;;7.50;3.20;;;9.60;86.80;;;;;;5104733;28;20089;-46
2022/04/11 09:12:22;;;;;;;6.63;3.42;;;9.80;85.70;;;;;;5093961;28;20074;-46
2022/04/11 09:15:06;;;;;;;8.02;3.35;;;9.80;85.70;;;;;;5108738;28;20042;-52
2022/04/11 09:17:55;;;;;;;6.85;3.17;;;9.80;84.90;;;;;;5100836;28;20035;-53
2022/04/11 09:20:43;;;;;;;5.40;3.50;;;10.00;84.30;;;;;;5095643;28;20051;-48
2022/04/11 09:23:27;;;;;;;6.43;3.20;;;10.20;83.50;;;;;;5114139;28;20084;-49
2022/04/11 09:26:24;;;;;;;6.03;3.10;;;10.10;82.60;;;;;;5109417;28;20403;-49
2022/04/11 09:29:08;;;;;;;6.68;3.28;;;10.20;82.10;;;;;;5110778;27;20454;-49
2022/04/11 09:31:53;;;;;;;6.50;3.30;;;10.40;81.20;;;;;;5110762;27;20110;-48
2022/04/11 09:34:37;;;;;;;6.85;2.83;;;10.20;79.80;;;;;;5114163;28;20401;-49
2022/04/11 09:37:22;;;;;;;5.70;2.67;;;10.30;78.80;;;;;;5113041;28;20037;-54
2022/04/11 09:40:06;;;;;;;6.88;2.97;;;10.50;78.50;;;;;;5114051;28;20399;-54
2022/04/11 09:42:57;;;;;;;8.18;2.78;;;10.40;74.80;;;;;;5127367;27;20038;-51
2022/04/11 09:45:47;;;;;;;10.05;2.97;;;10.40;76.60;;;;;;5117661;27;20058;-47
2022/04/11 09:48:37;;;;;;;16.23;3.60;;;10.20;76.60;;;;;;5094276;28;20400;-47
2022/04/11 09:51:22;;;;;;;12.63;4.35;;;10.20;75.70;;;;;;5096211;28;20070;-52
2022/04/11 09:54:25;;;;;;;6.87;2.87;;;10.20;74.80;;;;;;5133662;27;20727;-48
2022/04/11 09:57:11;;;;;;;11.27;3.80;;;10.10;74.80;;;;;;5076960;28;20277;-48
2022/04/11 09:59:57;;;;;;;5.38;3.10;;;10.40;74.20;;;;;;5097214;28;20464;-53
2022/04/11 10:02:43;;;;;;;5.95;3.10;;;10.60;72.80;;;;;;5111903;28;20066;-48
2022/04/11 10:05:27;;;;;;;7.82;3.00;;;10.70;71.40;;;;;;5104922;28;20074;-53
2022/04/11 10:08:12;;;;;;;5.90;2.95;;;10.90;70.70;;;;;;5093314;28;20491;-50
2022/04/11 10:10:57;;;;;;;10.05;3.33;;;10.90;71.10;;;;;;5093147;28;20035;-47
2022/04/11 10:13:42;;;;;;;12.48;3.70;;;10.90;71.20;;;;;;5106422;28;20035;-52
2022/04/11 10:16:27;;;;;;;4.22;2.60;;;10.90;71.50;;;;;;5108523;28;20540;-53
2022/04/11 10:19:12;;;;;;;7.90;3.47;;;11.10;71.40;;;;;;5113235;28;20038;-46
2022/04/11 10:22:13;;;;;;;6.40;3.33;;;11.20;69.60;;;;;;5110010;27;20067;-53
2022/04/11 10:25:06;;;;;;;6.32;3.45;;;11.10;68.60;;;;;;5112268;28;20111;-48
2022/04/11 10:28:16;;;;;;;6.18;3.55;;;11.10;68.60;;;;;;5113537;28;20030;-49
2022/04/11 10:31:08;;;;;;;5.47;2.92;;;11.10;68.40;;;;;;5093042;28;20047;-48
2022/04/11 10:33:54;;;;;;;6.20;3.20;;;11.20;67.50;;;;;;5093241;28;20039;-50
2022/04/11 10:36:39;;;;;;;5.65;2.90;;;11.30;68.00;;;;;;5111115;28;20521;-49
2022/04/11 10:39:24;;;;;;;14.20;4.13;;;11.50;68.00;;;;;;5093056;28;20090;-49
2022/04/11 10:42:11;;;;;;;12.95;3.40;;;11.70;67.90;;;;;;5110575;27;20142;-49
2022/04/11 10:44:56;;;;;;;10.20;3.15;;;11.50;67.90;;;;;;5122068;27;20418;-49
2022/04/11 10:47:48;;;;;;;8.35;3.42;;;11.20;68.20;;;;;;5096120;28;20069;-50
2022/04/11 10:50:34;;;;;;;12.60;4.35;;;11.30;67.90;;;;;;5103781;28;20383;-51
2022/04/11 10:53:24;;;;;;;11.88;3.47;;;11.50;67.00;;;;;;5092219;28;20063;-49
2022/04/11 10:56:08;;;;;;;14.93;3.95;;;11.90;66.50;;;;;;5101222;28;20071;-47
2022/04/11 10:58:52;;;;;;;5.75;3.20;;;11.90;66.30;;;;;;5104549;28;20555;-50
2022/04/11 11:01:43;;;;;;;6.63;3.23;;;11.90;66.50;;;;;;5101833;28;20059;-49
2022/04/11 11:04:30;;;;;;;7.25;2.88;;;11.80;66.50;;;;;;5112775;28;20312;-47
2022/04/11 11:07:23;;;;;;;4.70;2.83;;;12.00;66.40;;;;;;5092430;28;20522;-50
2022/04/11 11:10:08;;;;;;;4.00;3.08;;;11.80;66.10;;;;;;5095010;28;20035;-45
2022/04/11 11:13:12;;;;;;;5.10;3.05;;;11.60;66.20;;;;;;5112880;28;20115;-50
2022/04/11 11:16:21;;;;;;;6.47;3.40;;;11.80;66.10;;;;;;5113206;28;20047;-50
2022/04/11 11:19:07;;;;;;;5.53;3.20;;;12.00;65.50;;;;;;5107857;28;20038;-58
2022/04/11 11:21:54;;;;;;;5.78;3.13;;;11.80;64.80;;;;;;5101296;28;20027;-50
2022/04/11 11:25:18;;;;;;;11.13;3.75;;;11.70;66.30;;;;;;5113034;28;20046;-50
2022/04/11 11:28:05;;;;;;;5.40;3.05;;;12.20;70.20;;;;;;5092166;28;20031;-51
2022/04/11 11:30:49;;;;;;;10.02;4.32;;;12.50;66.80;;;;;;5100113;28;20035;-47
2022/04/11 11:33:33;;;;;;;7.22;3.45;;;12.60;67.70;;;;;;5108884;28;20039;-50
2022/04/11 11:36:28;;;;;;;6.40;3.10;;;12.70;66.00;;;;;;5087141;28;20046;-48
2022/04/11 11:39:18;;;;;;;7.13;3.40;;;12.80;66.10;;;;;;5116374;28;20046;-49
2022/04/11 11:42:14;;;;;;;5.30;3.40;;;13.00;65.80;;;;;;5096442;28;20101;-56
2022/04/11 11:44:58;;;;;;;7.03;3.47;;;13.10;65.80;;;;;;5125544;28;20031;-63
2022/04/11 11:47:42;;;;;;;4.23;2.97;;;13.20;66.10;;;;;;5082352;28;20034;-62
2022/04/11 11:50:26;;;;;;;5.43;3.22;;;13.30;63.10;;;;;;5102453;28;20059;-61
2022/04/11 11:53:13;;;;;;;7.03;3.00;;;12.80;62.60;;;;;;5099122;28;20042;-61
2022/04/11 11:55:59;;;;;;;5.93;3.08;;;12.30;63.40;;;;;;5110537;28;20042;-61
2022/04/11 11:58:43;;;;;;;8.00;3.40;;;12.20;63.40;;;;;;5108100;28;20038;-61
2022/04/11 12:01:29;;;;;;;8.77;3.10;;;12.20;64.40;;;;;;5112963;28;20038;-61
2022/04/11 12:04:19;;;;;;;9.60;3.80;;;12.50;64.60;;;;;;5097544;28;20040;-60
2022/04/11 12:07:05;;;;;;;10.57;3.35;;;12.70;65.00;;;;;;5092502;28;20054;-61
2022/04/11 12:09:49;;;;;;;7.60;3.20;;;12.80;62.90;;;;;;5112571;28;20050;-58
2022/04/11 12:12:34;;;;;;;27.50;4.93;;;12.90;61.80;;;;;;5093029;28;20035;-59
2022/04/11 12:15:20;;;;;;;6.25;3.55;;;12.60;62.60;;;;;;5095635;28;20047;-58
2022/04/11 12:18:07;;;;;;;4.90;3.42;;;12.80;64.70;;;;;;5106510;28;20474;-60
2022/04/11 12:20:51;;;;;;;7.03;3.40;;;13.00;62.60;;;;;;5116572;28;20046;-61
2022/04/11 12:23:47;;;;;;;7.05;3.78;;;12.70;60.40;;;;;;5112694;28;20053;-59
2022/04/11 12:26:34;;;;;;;3.95;2.85;;;12.40;60.50;;;;;;5117257;28;20034;-60
2022/04/11 12:29:19;;;;;;;12.52;3.17;;;12.30;61.90;;;;;;5107171;28;20042;-59
2022/04/11 12:32:06;;;;;;;3.80;3.00;;;12.60;61.50;;;;;;5103049;28;20044;-60
2022/04/11 12:34:53;;;;;;;3.92;2.90;;;12.90;62.70;;;;;;5114209;28;20090;-59
2022/04/11 12:37:49;;;;;;;7.88;3.22;;;13.30;60.60;;;;;;5083282;28;20078;-59
2022/04/11 12:40:44;;;;;;;5.55;3.00;;;13.60;60.40;;;;;;5108616;28;20082;-60
2022/04/11 12:43:29;;;;;;;3.88;2.90;;;13.40;61.50;;;;;;5114817;28;20500;-59
2022/04/11 12:46:13;;;;;;;7.35;3.30;;;13.60;60.60;;;;;;5111079;28;20047;-60
2022/04/11 12:48:58;;;;;;;3.83;3.00;;;13.80;59.80;;;;;;5116305;28;20043;-61
2022/04/11 12:51:56;;;;;;;5.28;2.88;;;13.50;59.90;;;;;;5100835;28;20151;-62
2022/04/11 12:54:49;;;;;;;3.30;2.83;;;13.50;59.40;;;;;;5114327;28;20042;-60
2022/04/11 12:57:34;;;;;;;5.03;3.03;;;13.70;59.70;;;;;;5095539;28;20119;-57
2022/04/11 13:00:21;;;;;;;9.13;3.05;;;13.70;58.70;;;;;;5100749;28;20582;-60
2022/04/11 13:03:05;;;;;;;13.77;3.30;;;13.80;58.50;;;;;;5107569;28;20586;-60
2022/04/11 13:05:49;;;;;;;3.37;3.00;;;13.90;59.00;;;;;;5104172;28;20157;-60
2022/04/11 13:08:33;;;;;;;5.53;3.10;;;13.70;56.90;;;;;;5114933;28;20050;-61
2022/04/11 13:11:17;;;;;;;5.95;3.47;;;13.70;57.80;;;;;;5086211;28;20355;-61
2022/04/11 13:14:03;;;;;;;7.25;3.92;;;13.90;58.30;;;;;;5101436;28;20047;-61
2022/04/11 13:19:51;;;;;;;7.18;3.00;;;14.60;58.30;;;;;;5113501;28;20031;-60
2022/04/11 13:22:36;;;;;;;4.95;3.33;;;14.80;55.40;;;;;;5112840;28;20072;-60
2022/04/11 13:25:20;;;;;;;8.07;3.20;;;14.90;54.30;;;;;;5114330;28;20647;-60
2022/04/11 13:28:04;;;;;;;4.80;3.08;;;14.40;55.40;;;;;;5113291;28;20153;-61
2022/04/11 13:30:48;;;;;;;6.10;3.17;;;14.10;55.40;;;;;;5113163;27;20062;-61
2022/04/11 13:33:32;;;;;;;6.00;2.97;;;14.00;55.40;;;;;;5113977;28;20299;-59
2022/04/11 13:36:16;;;;;;;3.22;2.70;;;14.20;56.80;;;;;;5115502;28;20042;-61
2022/04/11 13:39:01;;;;;;;5.25;3.20;;;14.80;54.90;;;;;;5107031;28;20051;-61
2022/04/11 13:41:47;;;;;;;6.20;3.28;;;15.20;55.20;;;;;;5106162;27;20455;-60
2022/04/11 13:44:32;;;;;;;8.65;3.38;;;15.30;54.00;;;;;;5106582;27;20092;-60
2022/04/11 13:47:16;;;;;;;4.47;3.15;;;15.70;55.10;;;;;;5123024;27;20035;-60
2022/04/11 13:50:00;;;;;;;4.88;3.30;;;15.50;53.30;;;;;;5102628;28;20468;-58
2022/04/11 13:52:44;;;;;;;10.63;3.95;;;15.20;54.30;;;;;;5113120;28;20131;-60
2022/04/11 13:55:28;;;;;;;6.55;3.70;;;15.00;53.20;;;;;;5114129;28;20399;-59
2022/04/11 13:58:13;;;;;;;6.00;3.35;;;15.20;54.00;;;;;;5113009;28;20127;-59
2022/04/11 14:00:57;;;;;;;5.93;3.45;;;15.60;52.90;;;;;;5098978;28;20035;-58
2022/04/11 14:03:41;;;;;;;4.60;2.70;;;15.70;55.00;;;;;;5111813;28;20555;-57
2022/04/11 14:06:26;;;;;;;6.72;3.42;;;16.20;54.40;;;;;;5114088;28;20031;-59
2022/04/11 14:09:11;;;;;;;4.07;3.20;;;16.40;53.80;;;;;;5107904;27;20038;-59
2022/04/11 14:11:56;;;;;;;5.63;3.22;;;16.20;52.80;;;;;;5111463;28;20047;-58
2022/04/11 14:14:40;;;;;;;6.03;3.25;;;16.00;54.60;;;;;;5089466;28;20042;-59
2022/04/11 14:17:24;;;;;;;5.32;3.33;;;16.20;51.40;;;;;;5093669;28;20454;-59
2022/04/11 14:20:09;;;;;;;4.45;3.20;;;16.20;51.30;;;;;;5109312;28;20534;-60
2022/04/11 14:22:53;;;;;;;4.60;3.10;;;15.90;51.80;;;;;;5081644;27;20033;-56
2022/04/11 14:25:38;;;;;;;6.65;3.22;;;15.90;51.50;;;;;;5118807;27;20062;-58
2022/04/11 14:28:22;;;;;;;4.90;3.47;;;16.00;51.50;;;;;;5130512;27;20054;-56